Metheringham, United Kingdom
Current Conditions -  °F | °C
As of 8:50 AM on Sunday 21 Dec 2014 (Local Time) from EGXW Reporting Station
Broken Clouds Broken Clouds  
Wind Chill: 38°   Ceiling: 1500
Heat Index: 45°   Visibility: 6mi
Dew Point: 41°   Wind: 15mph
Humidity: 87%   Direction: 220°SW
Pressure: 30.18"   Gusts: NA
Location:  53.14°N, 0.4°W
Report Text: EGXW 210850Z 22013KT 9999 FEW014 BKN015 07/05 Q1022 WHT NOSIG
Loading
Personal Weather Stations






























Interactive Weather Map New forecast layout! Learn more

10-Day Weather Forecast

Advertisements
Track Severe Weather on mobile